Time;durP1;ratioP1;P1;durP2;ratioP2;P2;SDS_P1;SDS_P2;PMS_P1;PMS_P2;Temp;Humidity;BMP_temperature;BMP_pressure;BME280_temperature;BME280_humidity;BME280_pressure;Samples;Min_cycle;Max_cycle;Signal;HPM_P1;HPM_P2
2023/05/18 00:00:52;;;;;;;;;;;;;;;11.17;30.46;97180.16;6296497;28;19926;-74
2023/05/18 00:03:54;;;;;;;;;;;;;;;11.15;30.44;97182.06;6296824;28;20317;-75
2023/05/18 00:07:02;;;;;;;;;;;;;;;11.11;30.31;97179.69;6296062;28;19920;-74
2023/05/18 00:10:06;;;;;;;;;;;;;;;11.11;30.43;97180.53;6296949;28;19921;-74
2023/05/18 00:13:12;;;;;;;;;;;;;;;11.02;30.67;97179.31;6296757;28;19920;-75
2023/05/18 00:16:14;;;;;;;;;;;;;;;11.10;31.00;97192.03;6295407;28;20022;-74
2023/05/18 00:19:19;;;;;;;;;;;;;;;11.01;30.98;97196.06;6296344;28;19920;-73
2023/05/18 00:22:22;;;;;;;;;;;;;;;11.16;31.19;97189.00;6296416;28;19921;-74
2023/05/18 00:25:25;;;;;;;;;;;;;;;11.01;31.13;97193.44;6295612;28;19927;-74
2023/05/18 00:28:27;;;;;;;;;;;;;;;10.95;31.14;97193.78;6295355;28;20309;-73
2023/05/18 00:31:28;;;;;;;;;;;;;;;10.94;31.13;97191.28;6295874;28;19920;-74
2023/05/18 00:34:29;;;;;;;;;;;;;;;10.99;31.34;97197.09;6296078;28;19920;-74
2023/05/18 00:37:31;;;;;;;;;;;;;;;11.08;31.39;97191.25;6295864;28;20364;-73
2023/05/18 00:40:32;;;;;;;;;;;;;;;10.94;31.26;97186.84;6295042;28;19927;-74
2023/05/18 00:43:32;;;;;;;;;;;;;;;10.92;31.37;97198.41;6294952;28;19926;-74
2023/05/18 00:46:34;;;;;;;;;;;;;;;10.87;31.58;97182.03;6295465;28;19927;-74
2023/05/18 00:49:40;;;;;;;;;;;;;;;10.90;31.38;97187.13;6295870;28;19920;-75
2023/05/18 00:52:44;;;;;;;;;;;;;;;10.98;31.50;97190.13;6294736;28;19920;-74
2023/05/18 00:55:47;;;;;;;;;;;;;;;10.90;31.70;97182.72;6295659;28;19924;-74
2023/05/18 00:58:56;;;;;;;;;;;;;;;10.81;31.73;97182.41;6295482;28;20011;-74
2023/05/18 01:01:57;;;;;;;;;;;;;;;10.68;32.17;97187.59;6294390;28;19920;-74
2023/05/18 01:04:59;;;;;;;;;;;;;;;10.69;32.58;97190.13;6277464;28;19920;-75
2023/05/18 01:08:04;;;;;;;;;;;;;;;10.57;32.44;97196.13;6295477;28;19924;-74
2023/05/18 01:11:23;;;;;;;;;;;;;;;10.56;32.73;97189.19;6294834;28;19938;-75
2023/05/18 01:14:28;;;;;;;;;;;;;;;10.59;32.94;97193.38;6295467;28;19928;-75
2023/05/18 01:17:42;;;;;;;;;;;;;;;10.60;32.88;97201.19;6294506;28;20275;-75
2023/05/18 01:20:48;;;;;;;;;;;;;;;10.55;32.88;97196.19;6294621;28;20544;-75
2023/05/18 01:24:24;;;;;;;;;;;;;;;10.54;32.92;97202.41;6293895;28;19920;-75
2023/05/18 01:27:28;;;;;;;;;;;;;;;10.44;33.09;97189.88;6220698;28;19921;-74
2023/05/18 01:30:32;;;;;;;;;;;;;;;10.44;33.52;97200.41;6294022;28;19923;-75
2023/05/18 01:33:36;;;;;;;;;;;;;;;10.30;33.68;97204.72;6295091;28;19943;-75
2023/05/18 01:36:37;;;;;;;;;;;;;;;10.24;33.68;97202.38;6294598;28;19920;-75
2023/05/18 01:39:39;;;;;;;;;;;;;;;10.42;34.05;97207.56;6294384;28;20078;-74
2023/05/18 01:42:47;;;;;;;;;;;;;;;10.36;34.11;97207.91;6294576;28;19920;-74
2023/05/18 01:45:53;;;;;;;;;;;;;;;10.40;34.03;97210.28;6294113;28;19927;-75
2023/05/18 01:49:00;;;;;;;;;;;;;;;10.51;34.14;97213.13;6294788;28;19920;-74
2023/05/18 01:52:13;;;;;;;;;;;;;;;10.49;34.07;97211.50;6294836;28;19927;-74
2023/05/18 01:55:16;;;;;;;;;;;;;;;10.56;34.37;97211.06;6293875;28;19928;-74
2023/05/18 01:58:18;;;;;;;;;;;;;;;10.65;34.04;97214.94;6294349;28;19973;-74
2023/05/18 02:01:21;;;;;;;;;;;;;;;10.67;34.08;97218.34;6293807;28;20073;-75
2023/05/18 02:04:27;;;;;;;;;;;;;;;10.72;34.15;97220.66;6294765;28;19920;-74
2023/05/18 02:07:27;;;;;;;;;;;;;;;10.69;34.06;97216.44;6293792;28;19956;-74
2023/05/18 02:10:31;;;;;;;;;;;;;;;10.67;34.50;97207.81;6294588;28;19920;-75
2023/05/18 02:13:37;;;;;;;;;;;;;;;10.68;34.86;97208.66;6294316;28;19920;-74
2023/05/18 02:16:45;;;;;;;;;;;;;;;10.81;34.57;97204.31;6294536;28;19920;-74
2023/05/18 02:19:46;;;;;;;;;;;;;;;10.86;34.23;97209.31;6293682;28;19920;-74
2023/05/18 02:22:47;;;;;;;;;;;;;;;10.98;34.23;97206.78;6293596;28;20431;-74
2023/05/18 02:25:48;;;;;;;;;;;;;;;11.04;34.13;97210.84;6293627;28;19920;-74
2023/05/18 02:28:54;;;;;;;;;;;;;;;11.01;34.36;97211.00;6292221;28;20462;-74
2023/05/18 02:31:58;;;;;;;;;;;;;;;11.11;34.39;97212.13;6294364;28;19920;-76
2023/05/18 02:35:02;;;;;;;;;;;;;;;11.14;34.42;97219.00;6293836;28;20020;-74
2023/05/18 02:38:06;;;;;;;;;;;;;;;11.08;34.55;97212.34;6294068;28;20386;-74
2023/05/18 02:41:10;;;;;;;;;;;;;;;11.09;34.40;97214.00;6297466;28;20083;-74
2023/05/18 02:44:12;;;;;;;;;;;;;;;11.10;34.69;97226.25;6298146;28;19920;-75
2023/05/18 02:47:15;;;;;;;;;;;;;;;11.22;34.61;97217.59;6281096;28;19924;-74
2023/05/18 02:50:18;;;;;;;;;;;;;;;11.40;34.60;97212.97;6298186;28;20369;-74
2023/05/18 02:53:22;;;;;;;;;;;;;;;11.43;34.41;97215.41;6298376;28;19920;-75
2023/05/18 02:56:23;;;;;;;;;;;;;;;11.57;34.15;97218.97;6297880;28;20301;-74
2023/05/18 02:59:27;;;;;;;;;;;;;;;11.73;34.05;97219.69;6263755;28;19920;-75
2023/05/18 03:02:28;;;;;;;;;;;;;;;11.80;33.77;97214.84;6297246;28;19917;-74
2023/05/18 03:05:32;;;;;;;;;;;;;;;12.01;33.62;97224.06;6279479;28;19921;-75
2023/05/18 03:08:35;;;;;;;;;;;;;;;12.20;33.42;97210.53;6297307;28;20374;-75
2023/05/18 03:11:37;;;;;;;;;;;;;;;12.28;33.36;97210.00;6296927;28;20305;-74
2023/05/18 03:14:40;;;;;;;;;;;;;;;12.36;33.27;97207.69;6297763;28;19924;-74
2023/05/18 03:17:42;;;;;;;;;;;;;;;12.59;33.20;97199.06;6297091;28;20019;-75
2023/05/18 03:20:50;;;;;;;;;;;;;;;12.80;32.91;97191.50;6297655;28;19991;-75
2023/05/18 03:23:54;;;;;;;;;;;;;;;13.10;32.55;97187.66;6297512;28;19928;-74
2023/05/18 03:26:59;;;;;;;;;;;;;;;13.26;32.30;97179.53;6297297;28;19917;-74
2023/05/18 03:30:05;;;;;;;;;;;;;;;13.43;31.94;97184.47;6280073;28;19920;-73
2023/05/18 03:33:10;;;;;;;;;;;;;;;13.47;31.92;97178.03;6297469;28;19920;-74
2023/05/18 03:36:11;;;;;;;;;;;;;;;13.41;31.88;97190.81;6296636;28;20389;-74
2023/05/18 03:39:15;;;;;;;;;;;;;;;13.51;31.79;97204.25;6297510;28;20497;-74
2023/05/18 03:42:18;;;;;;;;;;;;;;;13.70;31.73;97213.38;6278460;28;19927;-74
2023/05/18 03:45:22;;;;;;;;;;;;;;;13.98;31.42;97213.16;6297221;28;19920;-75
2023/05/18 03:48:27;;;;;;;;;;;;;;;14.08;31.48;97219.47;6296941;28;20006;-75
2023/05/18 03:51:28;;;;;;;;;;;;;;;14.20;31.33;97221.22;6296139;28;19927;-75
2023/05/18 03:54:34;;;;;;;;;;;;;;;14.47;30.97;97222.78;6296575;28;19921;-75
2023/05/18 03:57:37;;;;;;;;;;;;;;;14.69;30.69;97212.28;6296585;28;19926;-75
2023/05/18 04:00:41;;;;;;;;;;;;;;;14.94;30.52;97210.38;6296229;28;20097;-74
2023/05/18 04:03:44;;;;;;;;;;;;;;;15.07;30.21;97211.13;6296807;28;20003;-74
2023/05/18 04:06:52;;;;;;;;;;;;;;;15.35;29.95;97225.75;6295872;28;19920;-75
2023/05/18 04:09:55;;;;;;;;;;;;;;;15.83;29.37;97227.31;6296116;28;19927;-75
2023/05/18 04:12:59;;;;;;;;;;;;;;;16.26;28.97;97221.16;6296658;28;19920;-75
2023/05/18 04:16:03;;;;;;;;;;;;;;;16.48;28.82;97226.38;6296349;28;19920;-75
2023/05/18 04:19:07;;;;;;;;;;;;;;;16.74;28.33;97226.00;6296583;28;19920;-75
2023/05/18 04:22:08;;;;;;;;;;;;;;;16.56;28.47;97223.91;6295758;28;19920;-75
2023/05/18 04:25:15;;;;;;;;;;;;;;;16.46;28.68;97222.16;6296296;28;20377;-74
2023/05/18 04:28:19;;;;;;;;;;;;;;;16.52;28.46;97214.50;6296159;28;20305;-74
2023/05/18 04:31:22;;;;;;;;;;;;;;;16.48;28.62;97218.41;6296134;28;19959;-75
2023/05/18 04:34:27;;;;;;;;;;;;;;;16.51;28.61;97218.16;6278528;28;19920;-74
2023/05/18 04:37:30;;;;;;;;;;;;;;;16.41;28.55;97209.25;6296096;28;19920;-74
2023/05/18 04:40:36;;;;;;;;;;;;;;;16.31;28.72;97218.97;6295883;28;19916;-75
2023/05/18 04:43:42;;;;;;;;;;;;;;;16.09;29.04;97212.75;6295528;28;19920;-75
2023/05/18 04:46:51;;;;;;;;;;;;;;;16.15;28.83;97214.91;6295797;28;19920;-74
2023/05/18 04:49:52;;;;;;;;;;;;;;;16.14;28.74;97220.34;6294905;28;20345;-74
2023/05/18 04:52:56;;;;;;;;;;;;;;;16.06;28.78;97226.28;6295465;28;19927;-73
2023/05/18 04:56:00;;;;;;;;;;;;;;;16.08;28.70;97227.00;6294504;28;20309;-76
2023/05/18 04:59:03;;;;;;;;;;;;;;;16.04;28.55;97222.91;6277257;28;19927;-76
2023/05/18 05:02:04;;;;;;;;;;;;;;;15.96;28.63;97225.31;6294480;28;19943;-74
2023/05/18 05:05:05;;;;;;;;;;;;;;;15.81;28.68;97231.88;6294990;28;19927;-76
2023/05/18 05:08:09;;;;;;;;;;;;;;;15.70;28.85;97241.53;6295418;28;19920;-75
2023/05/18 05:11:12;;;;;;;;;;;;;;;15.83;28.76;97236.09;6295343;28;20137;-75
2023/05/18 05:14:13;;;;;;;;;;;;;;;16.02;28.40;97224.84;6294453;28;19924;-74
2023/05/18 05:17:15;;;;;;;;;;;;;;;16.14;28.29;97226.50;6294425;28;20007;-74
2023/05/18 05:20:16;;;;;;;;;;;;;;;16.55;27.56;97224.88;6294327;28;19920;-74
2023/05/18 05:23:20;;;;;;;;;;;;;;;16.74;27.33;97228.66;6294913;28;20018;-75
2023/05/18 05:26:25;;;;;;;;;;;;;;;16.88;27.20;97228.38;6294769;28;19921;-74
2023/05/18 05:29:26;;;;;;;;;;;;;;;16.82;27.26;97223.56;6294683;28;19920;-75
2023/05/18 05:32:31;;;;;;;;;;;;;;;16.79;27.38;97230.00;6276937;28;20352;-74
2023/05/18 05:35:32;;;;;;;;;;;;;;;16.65;27.69;97240.06;6293930;28;20382;-74
2023/05/18 05:38:35;;;;;;;;;;;;;;;16.41;27.90;97229.66;6294228;28;19920;-73
2023/05/18 05:41:48;;;;;;;;;;;;;;;16.15;28.04;97230.81;6294152;28;19926;-75
2023/05/18 05:44:52;;;;;;;;;;;;;;;16.00;28.23;97220.63;6295074;28;20398;-74
2023/05/18 05:47:55;;;;;;;;;;;;;;;15.84;28.31;97226.31;6294686;28;20348;-75
2023/05/18 05:50:58;;;;;;;;;;;;;;;15.76;28.33;97224.28;6294950;28;19920;-75
2023/05/18 05:54:04;;;;;;;;;;;;;;;15.64;28.51;97220.78;6294454;28;20074;-75
2023/05/18 05:57:08;;;;;;;;;;;;;;;15.51;28.68;97209.44;6294057;28;19920;-75
2023/05/18 06:00:13;;;;;;;;;;;;;;;15.47;28.65;97192.94;6277122;28;19920;-74
2023/05/18 06:03:16;;;;;;;;;;;;;;;15.47;28.88;97182.31;6277178;28;19920;-73
2023/05/18 06:06:20;;;;;;;;;;;;;;;15.16;29.11;97189.22;6294450;28;19960;-75
2023/05/18 06:09:23;;;;;;;;;;;;;;;14.99;29.19;97192.34;6294398;28;19924;-75
2023/05/18 06:12:25;;;;;;;;;;;;;;;14.80;29.63;97193.78;6294367;28;19986;-75
2023/05/18 06:15:26;;;;;;;;;;;;;;;14.94;29.48;97195.34;6295786;28;20445;-75
2023/05/18 06:18:30;;;;;;;;;;;;;;;14.90;29.56;97195.72;6260779;28;19921;-75
2023/05/18 06:21:34;;;;;;;;;;;;;;;14.93;29.69;97203.41;6273668;28;19921;-75
2023/05/18 06:24:38;;;;;;;;;;;;;;;14.86;29.82;97207.47;6274480;28;20332;-74
2023/05/18 06:27:43;;;;;;;;;;;;;;;14.89;29.65;97202.81;6273863;28;19927;-75
2023/05/18 06:30:46;;;;;;;;;;;;;;;14.81;29.53;97206.06;6274116;28;20394;-75
2023/05/18 06:33:49;;;;;;;;;;;;;;;15.07;29.29;97211.13;6273384;28;20030;-76
2023/05/18 06:36:58;;;;;;;;;;;;;;;14.91;29.30;97221.22;6273772;28;19924;-75
2023/05/18 06:40:00;;;;;;;;;;;;;;;15.02;29.09;97213.28;6273368;28;19920;-75
2023/05/18 06:43:07;;;;;;;;;;;;;;;15.19;28.75;97220.78;6273638;28;19943;-74
2023/05/18 06:46:17;;;;;;;;;;;;;;;15.11;29.00;97211.75;6273714;28;20293;-74
2023/05/18 06:49:19;;;;;;;;;;;;;;;15.04;29.13;97209.56;6273197;28;19971;-75
2023/05/18 06:52:23;;;;;;;;;;;;;;;14.93;29.45;97216.66;6273103;28;19921;-75
2023/05/18 06:55:24;;;;;;;;;;;;;;;14.98;29.43;97219.81;6272945;28;20070;-74
2023/05/18 06:58:25;;;;;;;;;;;;;;;15.15;29.29;97221.16;6272877;28;19920;-75
2023/05/18 07:01:26;;;;;;;;;;;;;;;15.32;29.70;97219.84;6272538;28;19921;-75
2023/05/18 07:04:29;;;;;;;;;;;;;;;15.18;30.20;97224.41;6272697;28;19955;-75
2023/05/18 07:07:36;;;;;;;;;;;;;;;15.03;31.47;97217.63;6273360;28;19921;-74
2023/05/18 07:10:39;;;;;;;;;;;;;;;14.94;30.72;97210.38;6272361;28;19920;-74
2023/05/18 07:13:43;;;;;;;;;;;;;;;14.62;30.29;97224.28;6273399;28;19921;-75
2023/05/18 07:16:46;;;;;;;;;;;;;;;14.33;30.68;97235.25;6278854;28;20309;-75
2023/05/18 07:19:51;;;;;;;;;;;;;;;14.18;30.72;97239.00;6297557;28;20305;-75
2023/05/18 07:22:55;;;;;;;;;;;;;;;14.12;30.81;97250.03;6297788;28;20400;-76
2023/05/18 07:25:58;;;;;;;;;;;;;;;14.14;31.32;97264.00;6296271;28;19967;-75
2023/05/18 07:29:01;;;;;;;;;;;;;;;13.98;31.87;97274.00;6296637;28;19925;-74
2023/05/18 07:32:02;;;;;;;;;;;;;;;13.78;32.16;97278.09;6296864;28;19920;-74
2023/05/18 07:35:06;;;;;;;;;;;;;;;13.67;33.22;97286.78;6280075;28;19927;-74
2023/05/18 07:38:07;;;;;;;;;;;;;;;13.53;33.20;97300.13;6296794;28;20356;-75
2023/05/18 07:41:14;;;;;;;;;;;;;;;13.10;34.14;97277.47;6297430;28;19936;-75
2023/05/18 07:44:14;;;;;;;;;;;;;;;13.22;34.82;97307.53;6296488;28;20289;-74
2023/05/18 07:47:20;;;;;;;;;;;;;;;12.91;35.96;97320.16;6297448;28;20413;-75
2023/05/18 07:50:22;;;;;;;;;;;;;;;12.64;36.57;97316.72;6296601;28;19917;-74
2023/05/18 07:53:25;;;;;;;;;;;;;;;12.43;37.26;97319.84;6296956;28;19920;-74
2023/05/18 07:56:26;;;;;;;;;;;;;;;12.35;37.37;97332.69;6296404;28;20400;-74
2023/05/18 07:59:27;;;;;;;;;;;;;;;12.30;39.11;97321.56;6296003;28;19927;-77
2023/05/18 08:02:31;;;;;;;;;;;;;;;11.80;40.77;97320.31;6278727;28;20082;-75
2023/05/18 08:05:32;;;;;;;;;;;;;;;11.76;41.37;97303.00;6296313;28;19920;-75
2023/05/18 08:08:36;;;;;;;;;;;;;;;12.11;41.37;97295.50;6296134;28;20290;-74
2023/05/18 08:11:37;;;;;;;;;;;;;;;11.99;41.88;97299.78;6295705;28;20033;-75
2023/05/18 08:14:44;;;;;;;;;;;;;;;11.77;41.99;97316.06;6296578;28;19928;-74
2023/05/18 08:17:46;;;;;;;;;;;;;;;11.73;42.19;97311.09;6295412;28;19920;-74
2023/05/18 08:20:48;;;;;;;;;;;;;;;11.88;42.50;97318.06;6295481;28;20393;-74
2023/05/18 08:23:49;;;;;;;;;;;;;;;12.06;42.49;97327.47;6295656;28;19921;-74
2023/05/18 08:26:51;;;;;;;;;;;;;;;12.08;41.50;97325.56;6278450;28;19921;-74
2023/05/18 08:29:58;;;;;;;;;;;;;;;12.11;41.23;97335.91;6296339;28;19920;-74
2023/05/18 08:33:00;;;;;;;;;;;;;;;12.20;41.21;97338.91;6295434;28;20031;-75
2023/05/18 08:36:01;;;;;;;;;;;;;;;12.26;41.14;97335.91;6295204;28;19920;-75
2023/05/18 08:39:06;;;;;;;;;;;;;;;12.33;41.17;97334.56;6277795;28;20407;-75
2023/05/18 08:42:15;;;;;;;;;;;;;;;12.32;42.03;97338.16;6295066;28;19929;-75
2023/05/18 08:45:19;;;;;;;;;;;;;;;12.33;42.12;97339.84;6295781;28;19974;-75
2023/05/18 08:48:21;;;;;;;;;;;;;;;12.30;42.37;97347.94;6294874;28;19924;-75
2023/05/18 08:51:25;;;;;;;;;;;;;;;12.35;43.22;97348.50;6294872;28;19939;-76
2023/05/18 08:54:36;;;;;;;;;;;;;;;12.23;43.83;97359.81;6295388;28;19920;-75
2023/05/18 08:57:38;;;;;;;;;;;;;;;12.07;44.43;97366.09;6295613;28;20037;-75
2023/05/18 09:00:42;;;;;;;;;;;;;;;11.86;45.28;97360.38;6295727;28;19920;-76
2023/05/18 09:03:49;;;;;;;;;;;;;;;11.79;46.04;97361.66;6295492;28;19927;-77
2023/05/18 09:06:53;;;;;;;;;;;;;;;11.73;46.36;97371.75;6294199;28;20398;-75
2023/05/18 09:09:57;;;;;;;;;;;;;;;11.54;46.50;97372.84;6294893;28;20001;-75
2023/05/18 09:12:59;;;;;;;;;;;;;;;11.45;47.18;97355.81;6294530;28;19920;-75
2023/05/18 09:16:07;;;;;;;;;;;;;;;11.34;47.81;97376.69;6294856;28;19928;-76
2023/05/18 09:19:12;;;;;;;;;;;;;;;11.08;48.46;97362.44;6277577;28;19920;-75
2023/05/18 09:22:14;;;;;;;;;;;;;;;11.07;49.63;97368.66;6294708;28;20503;-74
2023/05/18 09:25:15;;;;;;;;;;;;;;;10.92;49.82;97369.53;6294260;28;20382;-75
2023/05/18 09:28:26;;;;;;;;;;;;;;;10.84;50.47;97382.28;6294947;28;19920;-75
2023/05/18 09:31:29;;;;;;;;;;;;;;;10.73;51.11;97375.88;6294670;28;20305;-74
2023/05/18 09:34:40;;;;;;;;;;;;;;;10.54;50.96;97381.34;6294886;28;19916;-75
2023/05/18 09:37:41;;;;;;;;;;;;;;;10.58;52.35;97366.22;6294894;28;19925;-75
2023/05/18 09:40:45;;;;;;;;;;;;;;;10.32;52.42;97378.22;6294720;28;20321;-75
2023/05/18 09:43:47;;;;;;;;;;;;;;;10.17;52.71;97372.00;6294686;28;19920;-74
2023/05/18 09:46:54;;;;;;;;;;;;;;;10.14;52.14;97374.78;6294145;28;20058;-75
2023/05/18 09:49:55;;;;;;;;;;;;;;;10.26;53.49;97376.75;6293771;28;20179;-75
2023/05/18 09:52:58;;;;;;;;;;;;;;;10.05;53.64;97377.94;6294038;28;19920;-75
2023/05/18 09:56:03;;;;;;;;;;;;;;;9.93;53.78;97378.59;6294666;28;19920;-75
2023/05/18 09:59:10;;;;;;;;;;;;;;;9.98;53.87;97387.91;6293432;28;19928;-75
2023/05/18 10:02:14;;;;;;;;;;;;;;;10.06;53.91;97384.88;6293996;28;19927;-75
2023/05/18 10:05:21;;;;;;;;;;;;;;;10.12;54.64;97379.28;6294574;28;20074;-75
2023/05/18 10:08:24;;;;;;;;;;;;;;;9.96;54.16;97388.94;6294575;28;20019;-75
2023/05/18 10:11:30;;;;;;;;;;;;;;;9.99;54.46;97373.00;6293850;28;19920;-75
2023/05/18 10:14:35;;;;;;;;;;;;;;;10.04;54.97;97381.47;6294056;28;20022;-74
2023/05/18 10:17:38;;;;;;;;;;;;;;;10.00;54.93;97374.72;6294214;28;19920;-75
2023/05/18 10:20:45;;;;;;;;;;;;;;;9.98;55.20;97376.56;6294458;28;20062;-74
2023/05/18 10:23:49;;;;;;;;;;;;;;;9.95;56.25;97376.72;6294627;28;19979;-74
2023/05/18 10:26:58;;;;;;;;;;;;;;;9.83;56.42;97373.84;6294223;28;20385;-75
2023/05/18 10:30:06;;;;;;;;;;;;;;;9.89;55.67;97372.66;6294101;28;19920;-74
2023/05/18 10:33:15;;;;;;;;;;;;;;;9.91;55.86;97378.69;6294178;28;19931;-74
2023/05/18 10:36:18;;;;;;;;;;;;;;;9.90;56.58;97374.34;6293681;28;19928;-74
2023/05/18 10:39:19;;;;;;;;;;;;;;;9.98;56.85;97387.06;6293708;28;19920;-74
2023/05/18 10:42:25;;;;;;;;;;;;;;;9.80;57.28;97384.50;6294061;28;19920;-74
2023/05/18 10:45:32;;;;;;;;;;;;;;;9.68;57.25;97385.16;6293917;28;19965;-74
2023/05/18 10:48:41;;;;;;;;;;;;;;;9.67;57.43;97384.31;6294082;28;19920;-74
2023/05/18 10:51:47;;;;;;;;;;;;;;;9.70;57.55;97378.03;6293780;28;19921;-75
2023/05/18 10:54:54;;;;;;;;;;;;;;;9.68;57.10;97385.16;6293892;28;19927;-77
2023/05/18 10:58:02;;;;;;;;;;;;;;;9.71;57.34;97385.00;6293934;28;19920;-74
2023/05/18 11:01:08;;;;;;;;;;;;;;;9.80;57.90;97389.78;6296016;28;20015;-75
2023/05/18 11:04:11;;;;;;;;;;;;;;;9.63;57.88;97387.19;6298207;28;19920;-75
2023/05/18 11:07:19;;;;;;;;;;;;;;;9.59;58.00;97390.91;6280830;28;19920;-75
2023/05/18 11:10:31;;;;;;;;;;;;;;;9.62;58.11;97403.88;6298311;28;19920;-75
2023/05/18 11:13:33;;;;;;;;;;;;;;;9.54;57.85;97400.78;6298141;28;19978;-75
2023/05/18 11:16:35;;;;;;;;;;;;;;;9.56;58.16;97396.31;6297688;28;19958;-73
2023/05/18 11:19:58;;;;;;;;;;;;;;;9.50;58.35;97391.38;6298010;28;19920;-75
2023/05/18 11:23:01;;;;;;;;;;;;;;;9.61;59.04;97375.91;6297342;28;20361;-76
2023/05/18 11:26:17;;;;;;;;;;;;;;;9.54;58.57;97375.41;6297915;28;19932;-75
2023/05/18 11:29:28;;;;;;;;;;;;;;;9.54;59.21;97382.41;6298311;28;19925;-75
2023/05/18 11:32:35;;;;;;;;;;;;;;;9.57;59.22;97379.66;6297986;28;19943;-75
2023/05/18 11:35:56;;;;;;;;;;;;;;;9.50;59.02;97375.63;6297664;28;20317;-75
2023/05/18 11:39:05;;;;;;;;;;;;;;;9.55;59.64;97353.44;6297424;28;20405;-75
2023/05/18 11:42:13;;;;;;;;;;;;;;;9.41;58.99;97366.44;6297493;28;19920;-74
2023/05/18 11:45:15;;;;;;;;;;;;;;;9.42;58.70;97362.88;6297710;28;19920;-74
2023/05/18 11:48:30;;;;;;;;;;;;;;;9.50;58.11;97358.06;6297633;28;19920;-75
2023/05/18 11:51:52;;;;;;;;;;;;;;;9.69;57.40;97367.63;6297231;28;19920;-75
2023/05/18 11:54:58;;;;;;;;;;;;;;;9.67;56.58;97372.94;6296803;28;20031;-76
2023/05/18 11:58:08;;;;;;;;;;;;;;;9.76;55.99;97375.09;6296696;28;20439;-76
2023/05/18 12:01:13;;;;;;;;;;;;;;;9.76;55.71;97371.59;6296881;28;19924;-75
2023/05/18 12:04:18;;;;;;;;;;;;;;;9.69;55.22;97365.84;6297229;28;19927;-76
2023/05/18 12:07:19;;;;;;;;;;;;;;;9.75;55.32;97355.00;6296788;28;19920;-76
2023/05/18 12:10:26;;;;;;;;;;;;;;;9.91;55.03;97341.88;6297144;28;19920;-74
2023/05/18 12:13:29;;;;;;;;;;;;;;;10.03;54.66;97353.50;6295989;28;20312;-75
2023/05/18 12:16:35;;;;;;;;;;;;;;;10.06;54.51;97342.81;6278942;28;19924;-75
2023/05/18 12:19:37;;;;;;;;;;;;;;;10.19;54.06;97343.84;6296927;28;19920;-75
2023/05/18 12:22:39;;;;;;;;;;;;;;;10.29;53.98;97339.78;6295711;28;19927;-75
2023/05/18 12:25:42;;;;;;;;;;;;;;;10.45;53.87;97342.41;6296180;28;20296;-74
2023/05/18 12:28:46;;;;;;;;;;;;;;;10.39;53.48;97339.25;6296345;28;19920;-75
2023/05/18 12:31:49;;;;;;;;;;;;;;;10.40;53.24;97351.50;6296304;28;20011;-74
2023/05/18 12:34:52;;;;;;;;;;;;;;;10.38;53.27;97353.34;6278037;28;19920;-76
2023/05/18 12:37:59;;;;;;;;;;;;;;;10.44;53.29;97347.72;6295711;28;20015;-74
2023/05/18 12:41:00;;;;;;;;;;;;;;;10.44;53.29;97348.56;6296011;28;19924;-75
2023/05/18 12:44:06;;;;;;;;;;;;;;;10.41;53.20;97337.38;6295983;28;20066;-75
2023/05/18 12:47:10;;;;;;;;;;;;;;;10.48;53.21;97344.00;6295652;28;19920;-74
2023/05/18 12:50:13;;;;;;;;;;;;;;;10.48;53.03;97354.53;6295776;28;19920;-76
2023/05/18 12:53:15;;;;;;;;;;;;;;;10.47;53.07;97344.94;6295679;28;19924;-74
2023/05/18 12:56:20;;;;;;;;;;;;;;;10.45;53.01;97350.28;6295683;28;19927;-75
2023/05/18 12:59:21;;;;;;;;;;;;;;;10.45;52.93;97341.56;6295512;28;19927;-74
2023/05/18 13:02:32;;;;;;;;;;;;;;;10.45;52.93;97349.44;6295272;28;20401;-76
2023/05/18 13:05:36;;;;;;;;;;;;;;;10.45;52.91;97349.44;6295298;28;19920;-76
2023/05/18 13:08:42;;;;;;;;;;;;;;;10.42;52.75;97360.16;6295513;28;19920;-76
2023/05/18 13:11:49;;;;;;;;;;;;;;;10.49;52.87;97358.84;6295025;28;20416;-75
2023/05/18 13:14:51;;;;;;;;;;;;;;;10.47;52.92;97358.09;6295183;28;19924;-76
2023/05/18 13:17:57;;;;;;;;;;;;;;;10.49;52.87;97361.47;6294847;28;19927;-75
2023/05/18 13:21:06;;;;;;;;;;;;;;;10.52;52.82;97356.88;6277686;28;19920;-76
2023/05/18 13:24:09;;;;;;;;;;;;;;;10.49;52.80;97357.06;6294588;28;19927;-76
2023/05/18 13:27:11;;;;;;;;;;;;;;;10.49;53.02;97356.22;6294996;28;19920;-74
2023/05/18 13:30:17;;;;;;;;;;;;;;;10.45;52.63;97359.97;6295219;28;19920;-75
2023/05/18 13:33:25;;;;;;;;;;;;;;;10.46;52.72;97364.28;6295175;28;20010;-76
2023/05/18 13:36:34;;;;;;;;;;;;;;;10.39;52.52;97376.06;6294847;28;19920;-75
2023/05/18 13:39:38;;;;;;;;;;;;;;;10.40;52.72;97380.44;6295261;28;19924;-75
2023/05/18 13:42:39;;;;;;;;;;;;;;;10.34;52.54;97374.56;6294818;28;19978;-76
2023/05/18 13:45:41;;;;;;;;;;;;;;;10.33;52.69;97377.28;6276413;28;19927;-75
2023/05/18 13:48:46;;;;;;;;;;;;;;;10.33;52.73;97393.06;6294767;28;19920;-75
2023/05/18 13:51:52;;;;;;;;;;;;;;;10.30;52.92;97388.84;6294803;28;19920;-75
2023/05/18 13:54:57;;;;;;;;;;;;;;;10.27;52.77;97396.88;6294740;28;19924;-76
2023/05/18 13:58:07;;;;;;;;;;;;;;;10.21;52.67;97405.06;6293846;28;19920;-75
2023/05/18 14:01:11;;;;;;;;;;;;;;;10.16;52.86;97407.09;6294636;28;20302;-74
2023/05/18 14:04:20;;;;;;;;;;;;;;;10.15;53.14;97409.81;6294295;28;19974;-76
2023/05/18 14:07:23;;;;;;;;;;;;;;;10.17;52.97;97408.81;6294648;28;20431;-76
2023/05/18 14:10:26;;;;;;;;;;;;;;;10.10;53.24;97415.31;6294291;28;20274;-75
2023/05/18 14:13:28;;;;;;;;;;;;;;;10.04;53.15;97421.75;6294117;28;19923;-75
2023/05/18 14:16:31;;;;;;;;;;;;;;;9.94;53.11;97422.38;6294401;28;19928;-75
2023/05/18 14:19:36;;;;;;;;;;;;;;;9.99;53.46;97420.31;6294176;28;19927;-76
2023/05/18 14:22:37;;;;;;;;;;;;;;;9.98;53.96;97422.09;6294135;28;19916;-74
2023/05/18 14:25:42;;;;;;;;;;;;;;;9.99;53.73;97420.31;6294156;28;19924;-76
2023/05/18 14:28:47;;;;;;;;;;;;;;;9.96;53.52;97425.75;6294078;28;19920;-76
2023/05/18 14:31:51;;;;;;;;;;;;;;;9.89;53.42;97426.06;6293922;28;19922;-77
2023/05/18 14:34:57;;;;;;;;;;;;;;;9.89;53.99;97410.28;6294304;28;20390;-75
2023/05/18 14:38:12;;;;;;;;;;;;;;;9.85;54.00;97423.66;6298613;28;19920;-76
2023/05/18 14:41:20;;;;;;;;;;;;;;;9.83;54.24;97415.88;6298753;28;19927;-75
2023/05/18 14:44:30;;;;;;;;;;;;;;;9.87;54.31;97406.91;6298441;28;19921;-75
2023/05/18 14:47:36;;;;;;;;;;;;;;;9.77;54.05;97405.72;6298510;28;19999;-76
2023/05/18 14:50:40;;;;;;;;;;;;;;;9.78;53.95;97406.56;6281106;28;19925;-75
2023/05/18 14:53:44;;;;;;;;;;;;;;;9.79;53.91;97393.31;6298294;28;19916;-75
2023/05/18 14:56:47;;;;;;;;;;;;;;;9.74;53.90;97394.47;6298258;28;19920;-75
2023/05/18 14:59:53;;;;;;;;;;;;;;;9.79;53.78;97402.97;6298326;28;19986;-76
2023/05/18 15:02:55;;;;;;;;;;;;;;;9.85;53.81;97397.38;6298519;28;19916;-75
2023/05/18 15:05:56;;;;;;;;;;;;;;;9.78;53.81;97391.63;6298254;28;19920;-74
2023/05/18 15:08:58;;;;;;;;;;;;;;;9.69;53.73;97397.38;6297742;28;20316;-75
2023/05/18 15:12:01;;;;;;;;;;;;;;;9.75;53.58;97390.94;6298105;28;20341;-75
2023/05/18 15:15:06;;;;;;;;;;;;;;;9.64;53.54;97394.13;6298308;28;20022;-76
2023/05/18 15:18:10;;;;;;;;;;;;;;;9.59;53.45;97396.16;6297841;28;19920;-74
2023/05/18 15:21:13;;;;;;;;;;;;;;;9.58;53.40;97399.72;6297796;28;19927;-75
2023/05/18 15:24:14;;;;;;;;;;;;;;;9.66;53.40;97401.00;6297836;28;19920;-75
2023/05/18 15:27:16;;;;;;;;;;;;;;;9.70;53.22;97404.31;6297875;28;20522;-75
2023/05/18 15:30:20;;;;;;;;;;;;;;;9.60;53.27;97398.72;6297839;28;20417;-76
2023/05/18 15:33:23;;;;;;;;;;;;;;;9.57;53.25;97401.50;6297732;28;19927;-76
2023/05/18 15:36:24;;;;;;;;;;;;;;;9.59;53.39;97396.16;6297600;28;19920;-74
2023/05/18 15:39:25;;;;;;;;;;;;;;;9.65;53.24;97391.44;6297598;28;20022;-75
2023/05/18 15:42:32;;;;;;;;;;;;;;;9.54;53.79;97387.66;6296884;28;20419;-75
2023/05/18 15:45:38;;;;;;;;;;;;;;;9.51;53.32;97395.69;6297804;28;19920;-75
2023/05/18 15:48:41;;;;;;;;;;;;;;;9.53;53.30;97399.94;6296486;28;19916;-75
2023/05/18 15:51:47;;;;;;;;;;;;;;;9.61;53.27;97402.19;6297711;28;19920;-75
2023/05/18 15:54:48;;;;;;;;;;;;;;;9.56;53.33;97401.56;6297483;28;20305;-74
2023/05/18 15:57:49;;;;;;;;;;;;;;;9.54;53.46;97392.91;6297057;28;20306;-74
2023/05/18 16:00:53;;;;;;;;;;;;;;;9.50;53.40;97388.75;6297052;28;19920;-75
2023/05/18 16:03:54;;;;;;;;;;;;;;;9.54;53.22;97398.16;6296985;28;19920;-75